Anna, Illinois
Current Conditions -  °F | °C
As of 11:52 AM on Thursday 18 Dec 2014 (Local Time) from KMDH Reporting Station
Haze Haze  
Wind Chill: 27°   Ceiling: 800
Heat Index: 32°   Visibility: 5mi
Dew Point: 29°   Wind: 5mph
Humidity: 88%   Direction: 110°ESE
Pressure: 30.27"   Gusts: NA
Location:  37.46°N, 89.25°W
Report Text: KMDH 181752Z 11004KT 5SM BR OVC008 00/M02 A3027 RMK AO2 CIG 006V010 SLP253 60003 I6001 T00001017 10006 21006 58017
Loading
Personal Weather Stations






























Interactive Weather Map New forecast layout! Learn more

10-Day Weather Forecast

Advertisements
Track Severe Weather on mobile